createdAt,value
2023-03-24T00:47:59.554Z,100104.81
2023-03-24T00:50:28.640Z,100108.38
2023-03-24T00:52:58.635Z,100098.53
2023-03-24T00:55:28.653Z,100104.81
2023-03-24T00:57:57.232Z,100096.53
2023-03-24T01:47:14.938Z,100012.38
2023-03-24T01:49:43.317Z,100006.09
2023-03-24T01:52:12.656Z,99996.97
2023-03-24T01:54:42.057Z,99998.84
2023-03-24T01:57:13.256Z,99992.38
2023-03-24T01:59:42.811Z,99997.81
2023-03-24T02:47:55.881Z,99940.41
2023-03-24T02:50:25.078Z,99943.94
2023-03-24T02:52:54.358Z,99933.13
2023-03-24T02:55:22.800Z,99936.53
2023-03-24T02:57:51.492Z,99929.41
2023-03-24T03:46:01.082Z,99851.84
2023-03-24T03:48:36.442Z,99856.25
2023-03-24T03:51:13.117Z,99847.28
2023-03-24T03:53:46.256Z,99844.75
2023-03-24T03:56:14.113Z,99844.41
2023-03-24T03:58:53.518Z,99844.41
2023-03-24T04:48:18.920Z,99784.28
2023-03-24T04:51:09.277Z,99780.75
2023-03-24T04:53:53.550Z,99780.75
2023-03-24T04:56:36.179Z,99787.16
2023-03-24T04:59:12.904Z,99778.03
2023-03-24T05:48:28.599Z,99750.94
2023-03-24T05:51:13.132Z,99742.66
2023-03-24T05:53:41.364Z,99759.75
2023-03-24T05:56:28.073Z,99745.84
2023-03-24T05:58:58.947Z,99758.38
2023-03-24T06:01:44.416Z,99746.72
2023-03-24T06:04:22.734Z,99740.59
2023-03-24T06:06:55.941Z,99733.50
2023-03-24T06:09:29.539Z,99717.59
2023-03-24T06:11:57.278Z,99723.16
2023-03-24T06:14:26.704Z,99721.47
2023-03-24T06:17:05.051Z,99716.03
2023-03-24T06:19:34.752Z,99708.78
2023-03-24T06:22:18.157Z,99707.91
2023-03-24T06:24:47.021Z,99706.91
2023-03-24T06:27:15.746Z,99708.63
2023-03-24T06:29:43.476Z,99708.63
2023-03-24T06:32:12.208Z,99697.09
2023-03-24T06:34:45.053Z,99706.91
2023-03-24T06:37:32.810Z,99704.03
2023-03-24T06:40:01.866Z,99694.03
2023-03-24T06:42:32.674Z,99701.97
2023-03-24T06:45:00.411Z,99686.38
2023-03-24T06:47:28.123Z,99701.63
2023-03-24T06:49:57.330Z,99685.16
2023-03-24T06:52:27.924Z,99684.47
2023-03-24T06:54:58.171Z,99679.88
2023-03-24T06:57:28.921Z,99684.13
2023-03-24T07:00:26.745Z,99679.53
2023-03-24T07:03:04.375Z,99665.16
2023-03-24T07:05:35.111Z,99677.88
2023-03-24T07:08:29.613Z,99677.88
2023-03-24T07:10:58.082Z,99670.75
2023-03-24T07:13:25.986Z,99659.06
2023-03-24T07:16:00.610Z,99657.00
2023-03-24T07:18:28.345Z,99669.56
2023-03-24T07:21:01.964Z,99662.09
2023-03-24T07:23:31.046Z,99658.72
2023-03-24T07:26:04.548Z,99659.56
2023-03-24T07:28:47.320Z,99661.25
2023-03-24T07:31:24.698Z,99647.53
2023-03-24T07:34:01.500Z,99647.53
2023-03-24T07:36:31.391Z,99647.53
2023-03-24T07:38:59.651Z,99663.78
2023-03-24T07:41:33.449Z,99656.66
2023-03-24T07:44:04.941Z,99651.91
2023-03-24T07:46:40.516Z,99664.63
2023-03-24T07:49:18.088Z,99657.31
2023-03-24T07:51:52.725Z,99650.06
2023-03-24T07:54:23.707Z,99661.72
2023-03-24T07:56:52.871Z,99653.78
2023-03-24T07:59:20.799Z,99652.03
2023-03-24T08:01:55.402Z,99647.22
2023-03-24T08:04:53.852Z,99645.50
2023-03-24T08:07:41.479Z,99637.25
2023-03-24T08:10:10.940Z,99646.91
2023-03-24T08:12:38.634Z,99653.66
2023-03-24T08:15:07.600Z,99653.16
2023-03-24T08:17:35.385Z,99652.81
2023-03-24T08:20:06.107Z,99644.19
2023-03-24T08:22:33.858Z,99651.63
2023-03-24T08:25:03.067Z,99650.63
2023-03-24T08:27:30.846Z,99642.19
2023-03-24T08:29:58.519Z,99638.13
2023-03-24T08:32:26.232Z,99642.53
2023-03-24T08:34:54.278Z,99652.97
2023-03-24T08:37:21.995Z,99666.53
2023-03-24T08:39:49.725Z,99654.50
2023-03-24T08:42:18.938Z,99661.13
2023-03-24T08:44:46.653Z,99659.25
2023-03-24T08:47:14.421Z,99652.81
2023-03-24T08:49:42.243Z,99652.31
2023-03-24T08:52:10.038Z,99653.84
2023-03-24T08:54:37.746Z,99659.41
2023-03-24T08:57:05.790Z,99668.03
2023-03-24T08:59:34.854Z,99667.69
2023-03-24T09:02:02.622Z,99658.88
2023-03-24T09:04:30.645Z,99662.09
2023-03-24T09:07:01.663Z,99660.69
2023-03-24T09:09:30.617Z,99658.69
2023-03-24T09:11:58.342Z,99675.41
2023-03-24T09:14:26.271Z,99673.38
2023-03-24T09:16:56.149Z,99677.59
2023-03-24T09:19:23.959Z,99666.78
2023-03-24T09:21:51.670Z,99677.25
2023-03-24T09:24:19.424Z,99686.75
2023-03-24T09:26:47.103Z,99682.81
2023-03-24T09:29:14.718Z,99684.34
2023-03-24T09:31:42.439Z,99686.72
2023-03-24T09:34:11.577Z,99688.38
2023-03-24T09:36:39.289Z,99688.03
2023-03-24T09:39:07.262Z,99701.41
2023-03-24T09:41:34.931Z,99697.84
2023-03-24T09:44:04.295Z,99690.44
2023-03-24T09:46:34.665Z,99704.13
2023-03-24T09:49:02.339Z,99697.88
2023-03-24T09:51:31.483Z,99708.72
2023-03-24T09:54:01.449Z,99717.16
2023-03-24T09:56:38.060Z,99705.50
2023-03-24T09:59:06.436Z,99707.00
2023-03-24T10:01:34.750Z,99706.19
2023-03-24T10:04:02.759Z,99706.66
2023-03-24T10:06:33.138Z,99709.69
2023-03-24T10:09:06.007Z,99709.34
2023-03-24T10:11:35.048Z,99701.91
2023-03-24T10:14:06.946Z,99709.00
2023-03-24T10:16:35.236Z,99712.38
2023-03-24T10:19:04.601Z,99703.25
2023-03-24T10:21:34.213Z,99699.53
2023-03-24T10:24:03.090Z,99702.88
2023-03-24T10:26:33.123Z,99699.16
2023-03-24T10:29:05.186Z,99697.97
2023-03-24T10:31:34.006Z,99704.25
2023-03-24T10:34:01.950Z,99705.06
2023-03-24T10:36:30.944Z,99711.31
2023-03-24T10:39:09.589Z,99703.19
2023-03-24T10:41:46.154Z,99713.03
2023-03-24T10:44:14.021Z,99709.31
2023-03-24T10:46:44.614Z,99721.81
2023-03-24T10:49:15.706Z,99714.38
2023-03-24T10:51:46.533Z,99719.78
2023-03-24T10:54:16.814Z,99732.31
2023-03-24T10:56:46.079Z,99716.91
2023-03-24T10:59:19.760Z,99717.75
2023-03-24T11:01:47.579Z,99724.88
2023-03-24T11:04:16.138Z,99725.69
2023-03-24T11:06:55.166Z,99717.56
2023-03-24T11:09:24.352Z,99731.94
2023-03-24T11:11:53.611Z,99731.59
2023-03-24T11:14:25.558Z,99740.75
2023-03-24T11:16:53.321Z,99744.13
2023-03-24T11:19:22.474Z,99726.53
2023-03-24T11:21:52.120Z,99738.94
2023-03-24T11:24:20.357Z,99726.41
2023-03-24T11:26:51.051Z,99724.53
2023-03-24T11:29:19.480Z,99725.22
2023-03-24T11:31:51.869Z,99714.38
2023-03-24T11:34:20.565Z,99729.25
2023-03-24T11:36:48.605Z,99731.25
2023-03-24T11:39:20.660Z,99737.03
2023-03-24T11:42:02.248Z,99741.44
2023-03-24T11:44:31.496Z,99739.38
2023-03-24T11:46:59.619Z,99740.03
2023-03-24T11:49:28.119Z,99743.44
2023-03-24T11:51:55.914Z,99743.44
2023-03-24T11:54:25.449Z,99742.22
2023-03-24T11:56:54.971Z,99746.47
2023-03-24T11:59:30.311Z,99735.63
2023-03-24T12:02:00.102Z,99732.91
2023-03-24T12:04:34.216Z,99716.34
2023-03-24T12:07:07.816Z,99703.81
2023-03-24T12:09:36.363Z,99710.25
2023-03-24T12:12:08.588Z,99727.53
2023-03-24T12:14:41.692Z,99727.19
2023-03-24T12:17:10.206Z,99727.00
2023-03-24T12:19:52.784Z,99725.13
2023-03-24T12:22:26.375Z,99749.34
2023-03-24T12:25:02.001Z,99757.31
2023-03-24T12:27:30.230Z,99771.88
2023-03-24T12:30:02.491Z,99758.13
2023-03-24T12:32:32.823Z,99749.00
2023-03-24T12:35:19.590Z,99746.47
2023-03-24T12:37:49.165Z,99740.69
2023-03-24T12:40:27.447Z,99735.28
2023-03-24T12:42:56.379Z,99719.84
2023-03-24T12:45:27.630Z,99724.44
2023-03-24T12:48:01.286Z,99739.69
2023-03-24T12:50:31.923Z,99743.25
2023-03-24T12:53:08.740Z,99760.34
2023-03-24T12:55:39.159Z,99758.66
2023-03-24T12:58:07.384Z,99764.06
2023-03-24T13:00:37.312Z,99768.63
2023-03-24T13:03:06.149Z,99761.19
2023-03-24T13:05:34.322Z,99764.06
2023-03-24T13:08:03.582Z,99767.78
2023-03-24T13:10:31.793Z,99769.84
2023-03-24T13:13:00.574Z,99766.97
2023-03-24T13:15:30.113Z,99762.38
2023-03-24T13:18:01.518Z,99718.19
2023-03-24T13:20:29.478Z,99731.56
2023-03-24T13:22:57.115Z,99737.84
2023-03-24T13:25:26.400Z,99756.63
2023-03-24T13:27:54.653Z,99799.13
2023-03-24T13:30:26.610Z,99800.31
2023-03-24T13:32:54.841Z,99820.81
2023-03-24T13:35:30.908Z,99825.41
2023-03-24T13:38:00.455Z,99841.66
2023-03-24T13:40:28.858Z,99843.34
2023-03-24T13:42:56.880Z,99846.25
2023-03-24T13:45:26.117Z,99847.06
2023-03-24T13:47:57.822Z,99847.06
2023-03-24T13:50:27.170Z,99852.50
2023-03-24T13:53:05.833Z,99828.09
2023-03-24T13:55:36.406Z,99827.09
2023-03-24T13:58:08.665Z,99824.38
2023-03-24T14:00:36.504Z,99816.25
2023-03-24T14:03:16.008Z,99817.09
2023-03-24T14:05:57.706Z,99812.50
2023-03-24T14:08:35.561Z,99825.03
2023-03-24T14:11:03.178Z,99807.78
2023-03-24T14:13:38.887Z,99798.28
2023-03-24T14:16:25.055Z,99816.56
2023-03-24T14:18:52.872Z,99805.91
2023-03-24T14:21:21.995Z,99761.88
2023-03-24T14:23:52.024Z,99748.16
2023-03-24T14:26:29.993Z,99753.59
2023-03-24T14:28:57.769Z,99745.63
2023-03-24T14:31:26.364Z,99751.88
2023-03-24T14:34:12.111Z,99764.78
2023-03-24T14:36:41.681Z,99771.19
2023-03-24T14:39:13.950Z,99766.09
2023-03-24T14:41:42.506Z,99773.06
2023-03-24T14:44:10.349Z,99789.47
2023-03-24T14:46:41.609Z,99793.19
2023-03-24T14:49:19.942Z,99793.19
2023-03-24T14:51:51.478Z,99785.75
2023-03-24T14:54:20.017Z,99793.19
2023-03-24T14:56:48.434Z,99789.47
2023-03-24T14:59:22.360Z,99788.28
2023-03-24T15:01:50.145Z,99796.59
2023-03-24T15:04:17.911Z,99794.56
2023-03-24T15:06:46.780Z,99808.31
2023-03-24T15:09:17.290Z,99795.59
2023-03-24T15:11:45.456Z,99782.03
2023-03-24T15:14:15.463Z,99782.03
2023-03-24T15:16:43.271Z,99786.63
2023-03-24T15:19:12.009Z,99783.72
2023-03-24T15:21:39.987Z,99794.56
2023-03-24T15:24:22.709Z,99800.00
2023-03-24T15:26:52.200Z,99801.66
2023-03-24T15:29:19.940Z,99817.94
2023-03-24T15:31:47.821Z,99814.22
2023-03-24T15:34:25.359Z,99815.03
2023-03-24T15:36:54.403Z,99808.78
2023-03-24T15:39:22.350Z,99808.78
2023-03-24T15:41:52.974Z,99812.50
2023-03-24T15:44:21.817Z,99808.78
2023-03-24T15:46:49.590Z,99822.50
2023-03-24T15:49:19.358Z,99812.00
2023-03-24T15:51:48.786Z,99810.84
2023-03-24T15:54:21.235Z,99816.91
2023-03-24T15:57:02.042Z,99815.91
2023-03-24T15:59:34.229Z,99812.34
2023-03-24T16:02:02.125Z,99813.19
2023-03-24T16:04:29.926Z,99814.03
2023-03-24T16:06:57.668Z,99805.06
2023-03-24T16:09:27.562Z,99800.00
2023-03-24T16:11:55.632Z,99803.38
2023-03-24T16:14:25.131Z,99804.38
2023-03-24T16:16:54.277Z,99796.94
2023-03-24T16:19:21.933Z,99799.66
2023-03-24T16:21:49.643Z,99807.09
2023-03-24T16:24:17.434Z,99807.78
2023-03-24T16:26:46.023Z,99812.16
2023-03-24T16:29:15.462Z,99821.34
2023-03-24T16:31:45.117Z,99826.75
2023-03-24T16:34:12.793Z,99824.22
2023-03-24T16:36:40.622Z,99815.91
2023-03-24T16:39:11.357Z,99815.72
2023-03-24T16:41:39.477Z,99828.41
2023-03-24T16:44:07.254Z,99825.88
2023-03-24T16:46:35.470Z,99833.84
2023-03-24T16:49:05.011Z,99844.03
2023-03-24T16:51:32.869Z,99850.44
2023-03-24T16:54:00.677Z,99850.44
2023-03-24T16:56:28.554Z,99853.84
2023-03-24T16:58:56.434Z,99857.56
2023-03-24T17:01:28.389Z,99850.44
2023-03-24T17:03:56.275Z,99851.66
2023-03-24T17:06:25.425Z,99845.38
2023-03-24T17:08:53.078Z,99849.78
2023-03-24T17:11:21.249Z,99847.06
2023-03-24T17:13:49.006Z,99851.66
2023-03-24T17:16:16.846Z,99852.50
2023-03-24T17:18:44.604Z,99856.22
2023-03-24T17:21:12.818Z,99875.00
2023-03-24T17:23:42.017Z,99862.50
2023-03-24T17:26:09.891Z,99862.50
2023-03-24T17:28:37.769Z,99866.03
2023-03-24T17:31:05.871Z,99864.34
2023-03-24T17:33:33.685Z,99875.19
2023-03-24T17:36:01.540Z,99880.59
2023-03-24T17:38:29.515Z,99877.91
2023-03-24T17:41:01.986Z,99888.75
2023-03-24T17:43:29.797Z,99894.31
2023-03-24T17:45:58.144Z,99894.50
2023-03-24T17:48:25.987Z,99905.34
2023-03-24T17:50:53.781Z,99903.63
2023-03-24T17:53:25.648Z,99908.06
2023-03-24T17:55:53.840Z,99916.19
2023-03-24T17:58:23.093Z,99903.63
2023-03-24T18:00:51.347Z,99905.34
2023-03-24T18:03:19.837Z,99903.63
2023-03-24T18:05:47.869Z,99899.91
2023-03-24T18:08:16.670Z,99900.94
2023-03-24T18:10:44.504Z,99908.22
2023-03-24T18:13:12.296Z,99911.59
2023-03-24T18:15:43.057Z,99905.34
2023-03-24T18:18:10.989Z,99899.06
2023-03-24T18:20:39.291Z,99911.59
2023-03-24T18:23:07.449Z,99909.06
2023-03-24T18:25:35.160Z,99907.34
2023-03-24T18:28:02.897Z,99909.06
2023-03-24T18:30:32.240Z,99913.66
2023-03-24T18:33:01.753Z,99915.31
2023-03-24T18:35:30.229Z,99908.22
2023-03-24T18:37:58.045Z,99912.78
2023-03-24T18:40:26.446Z,99914.66
2023-03-24T18:42:54.137Z,99908.22
2023-03-24T18:45:21.864Z,99907.34
2023-03-24T18:47:49.747Z,99916.53
2023-03-24T18:50:19.330Z,99919.22
2023-03-24T18:52:47.195Z,99917.34
2023-03-24T18:55:18.138Z,99921.06
2023-03-24T18:57:45.924Z,99931.91
2023-03-24T19:00:22.569Z,99936.50
2023-03-24T19:02:52.427Z,99925.66
2023-03-24T19:05:21.908Z,99929.38
2023-03-24T19:07:52.051Z,99932.94
2023-03-24T19:10:19.988Z,99943.09
2023-03-24T19:12:50.029Z,99961.91
2023-03-24T19:15:18.462Z,99978.16
2023-03-24T19:17:46.304Z,99965.63
2023-03-24T19:20:15.430Z,99968.34
2023-03-24T19:22:44.761Z,99961.22
2023-03-24T19:25:12.730Z,99963.94
2023-03-24T19:27:40.427Z,99963.94
2023-03-24T19:30:08.747Z,99963.94
2023-03-24T19:32:37.375Z,99961.41
2023-03-24T19:35:05.333Z,99962.22
2023-03-24T19:37:33.112Z,99960.41
2023-03-24T19:40:02.198Z,99967.66
2023-03-24T19:42:33.268Z,99973.06
2023-03-24T19:45:01.569Z,99976.81
2023-03-24T19:47:29.340Z,99989.34
2023-03-24T19:49:58.226Z,99997.47
2023-03-24T19:52:25.990Z,99998.50
2023-03-24T19:54:53.747Z,100008.47
2023-03-24T19:57:23.122Z,100007.63
2023-03-24T19:59:50.857Z,100009.34
2023-03-24T20:02:19.184Z,99999.34
2023-03-24T20:04:47.075Z,99996.78
2023-03-24T20:07:15.998Z,99996.78
2023-03-24T20:09:43.832Z,99994.09
2023-03-24T20:12:11.673Z,99994.09
2023-03-24T20:14:41.090Z,99992.38
2023-03-24T20:17:10.589Z,99987.66
2023-03-24T20:19:39.366Z,99998.84
2023-03-24T20:22:07.271Z,99999.66
2023-03-24T20:24:37.780Z,99990.72
2023-03-24T20:27:05.509Z,99981.72
2023-03-24T20:29:33.236Z,99992.53
2023-03-24T20:32:02.258Z,99999.84
2023-03-24T20:34:29.998Z,100004.25
2023-03-24T20:36:57.912Z,100003.38
2023-03-24T20:39:25.794Z,100007.97
2023-03-24T20:41:54.174Z,100001.53
2023-03-24T20:44:21.872Z,100013.38
2023-03-24T20:46:49.672Z,99995.41
2023-03-24T20:49:19.478Z,99998.13
2023-03-24T20:51:48.050Z,99983.75
2023-03-24T20:54:16.082Z,99991.72
2023-03-24T20:56:43.860Z,99989.66
2023-03-24T20:59:13.847Z,99995.09
2023-03-24T21:01:42.234Z,99990.53
2023-03-24T21:04:10.546Z,99997.78
2023-03-24T21:06:39.793Z,99985.94
2023-03-24T21:09:07.529Z,99994.41
2023-03-24T21:11:35.420Z,100000.50
2023-03-24T21:14:03.444Z,100002.88
2023-03-24T21:16:33.847Z,100004.09
2023-03-24T21:19:03.581Z,99998.66
2023-03-24T21:21:31.992Z,100006.25
2023-03-24T21:24:01.240Z,100001.22
2023-03-24T21:26:29.068Z,99995.09
2023-03-24T21:28:56.847Z,99994.09
2023-03-24T21:31:25.329Z,99981.53
2023-03-24T21:33:53.051Z,99988.66
2023-03-24T21:36:20.847Z,99984.09
2023-03-24T21:38:49.598Z,99974.13
2023-03-24T21:41:18.823Z,99983.25
2023-03-24T21:43:51.199Z,99981.38
2023-03-24T21:46:21.928Z,99980.38
2023-03-24T21:48:51.410Z,99984.94
2023-03-24T21:51:20.017Z,99983.91
2023-03-24T21:53:48.873Z,99988.34
2023-03-24T21:56:20.292Z,99990.00
2023-03-24T21:58:47.983Z,99989.66
2023-03-24T22:01:16.041Z,99988.00
2023-03-24T22:03:43.998Z,99993.41
2023-03-24T22:06:11.776Z,99986.28
2023-03-24T22:08:43.566Z,99989.66
2023-03-24T22:11:11.658Z,99980.88
2023-03-24T22:13:40.837Z,99981.72
2023-03-24T22:16:08.968Z,99974.63
2023-03-24T22:18:36.651Z,99973.75
2023-03-24T22:21:04.823Z,99973.75
2023-03-24T22:23:34.425Z,99975.44
2023-03-24T22:26:04.113Z,99973.75
2023-03-24T22:28:31.823Z,99973.75
2023-03-24T22:31:03.676Z,99981.72
2023-03-24T22:33:31.415Z,99981.38
2023-03-24T22:35:59.491Z,99976.81
2023-03-24T22:38:27.273Z,99969.69
2023-03-24T22:40:56.663Z,99973.41
2023-03-24T22:43:24.361Z,99973.41
2023-03-24T22:45:52.262Z,99968.00
2023-03-24T22:48:21.432Z,99975.13
2023-03-24T22:50:49.187Z,99970.88
2023-03-24T22:53:16.930Z,99964.63
2023-03-24T22:55:44.858Z,99977.16
2023-03-24T22:58:13.403Z,99972.06
2023-03-24T23:00:41.249Z,99973.75
2023-03-24T23:03:09.096Z,99970.03
2023-03-24T23:05:41.416Z,99963.78
2023-03-24T23:08:09.144Z,99968.31
2023-03-24T23:10:36.775Z,99970.03
2023-03-24T23:13:04.522Z,99966.31
2023-03-24T23:15:32.282Z,99971.75
2023-03-24T23:18:00.137Z,99972.56
2023-03-24T23:20:28.102Z,99966.31
2023-03-24T23:22:57.284Z,99970.88
2023-03-24T23:25:25.662Z,99965.44
2023-03-24T23:27:53.468Z,99967.31
2023-03-24T23:30:21.315Z,99958.34
2023-03-24T23:32:49.653Z,99965.63
2023-03-24T23:35:17.393Z,99966.66
2023-03-24T23:37:45.205Z,99965.63
2023-03-24T23:40:15.330Z,99969.38
2023-03-24T23:42:43.871Z,99968.31
2023-03-24T23:45:14.775Z,99966.66
2023-03-24T23:47:42.689Z,99949.53
2023-03-24T23:50:10.613Z,99969.38
2023-03-24T23:52:38.468Z,99949.53
2023-03-24T23:55:06.384Z,99943.28
2023-03-24T23:57:36.002Z,99945.97
